createdAt,value
2023-01-31T00:02:14.927Z,7.40
2023-01-31T00:05:19.902Z,6.13
2023-01-31T00:08:23.395Z,5.90
2023-01-31T00:11:28.756Z,8.00
2023-01-31T00:14:34.936Z,6.07
2023-01-31T00:17:38.488Z,7.00
2023-01-31T00:20:42.955Z,6.37
2023-01-31T00:23:52.495Z,6.57
2023-01-31T00:26:57.593Z,6.50
2023-01-31T00:30:04.108Z,6.33
2023-01-31T00:33:07.667Z,6.10
2023-01-31T00:36:15.387Z,6.73
2023-01-31T00:39:18.853Z,7.40
2023-01-31T00:42:25.110Z,6.47
2023-01-31T00:45:30.262Z,6.20
2023-01-31T00:48:36.196Z,6.60
2023-01-31T00:51:39.393Z,7.33
2023-01-31T00:54:42.992Z,7.57
2023-01-31T00:57:48.687Z,6.83
2023-01-31T01:00:53.300Z,6.63
2023-01-31T01:03:58.309Z,5.50
2023-01-31T01:07:03.685Z,5.13
2023-01-31T01:10:15.656Z,6.10
2023-01-31T01:13:18.976Z,5.53
2023-01-31T01:16:26.544Z,6.60
2023-01-31T01:19:29.737Z,5.60
2023-01-31T01:22:33.209Z,6.30
2023-01-31T01:25:44.434Z,5.60
2023-01-31T01:28:49.107Z,6.37
2023-01-31T01:31:53.852Z,5.13
2023-01-31T01:34:57.041Z,5.90
2023-01-31T01:38:01.224Z,6.43
2023-01-31T01:41:06.854Z,6.27
2023-01-31T01:44:46.501Z,5.67
2023-01-31T01:47:54.725Z,5.80
2023-01-31T01:51:00.008Z,5.50
2023-01-31T01:54:09.151Z,5.63
2023-01-31T01:57:18.208Z,6.33
2023-01-31T02:00:24.637Z,5.50
2023-01-31T02:03:30.859Z,6.17
2023-01-31T02:06:37.033Z,5.90
2023-01-31T02:09:47.976Z,5.80
2023-01-31T02:12:52.204Z,6.40
2023-01-31T02:15:56.048Z,6.27
2023-01-31T02:19:01.830Z,6.30
2023-01-31T02:22:18.436Z,5.67
2023-01-31T02:26:15.910Z,6.17
2023-01-31T02:29:41.030Z,6.87
2023-01-31T02:32:55.428Z,6.23
2023-01-31T02:36:13.845Z,5.73
2023-01-31T02:39:27.533Z,7.33
2023-01-31T02:42:45.887Z,6.20
2023-01-31T02:46:01.103Z,5.23
2023-01-31T02:49:34.527Z,6.47
2023-01-31T02:52:49.359Z,7.33
2023-01-31T02:56:18.171Z,6.27
2023-01-31T02:59:28.309Z,5.90
2023-01-31T03:02:33.062Z,6.10
2023-01-31T03:05:42.680Z,4.40
2023-01-31T03:08:46.573Z,6.23
2023-01-31T03:11:56.785Z,5.53
2023-01-31T03:15:19.757Z,6.53
2023-01-31T03:18:27.143Z,5.43
2023-01-31T03:21:39.562Z,6.17
2023-01-31T03:24:47.296Z,6.23
2023-01-31T03:27:57.429Z,5.47
2023-01-31T03:31:08.577Z,5.83
2023-01-31T03:34:15.027Z,6.17
2023-01-31T03:37:26.589Z,5.70
2023-01-31T03:40:39.032Z,5.57
2023-01-31T03:43:53.868Z,6.20
2023-01-31T03:47:03.303Z,5.77
2023-01-31T03:50:12.184Z,5.83
2023-01-31T03:53:23.022Z,6.37
2023-01-31T03:56:34.638Z,7.17
2023-01-31T03:59:44.300Z,7.33
2023-01-31T04:02:53.856Z,5.50
2023-01-31T04:05:57.293Z,6.17
2023-01-31T04:09:01.974Z,6.73
2023-01-31T04:12:05.871Z,6.90
2023-01-31T04:15:11.335Z,6.47
2023-01-31T04:18:14.439Z,6.03
2023-01-31T04:21:17.424Z,6.33
2023-01-31T04:24:21.740Z,5.60
2023-01-31T04:27:25.388Z,5.43
2023-01-31T04:30:28.436Z,5.60
2023-01-31T04:33:32.042Z,6.73
2023-01-31T04:36:35.176Z,5.90
2023-01-31T04:39:39.519Z,6.10
2023-01-31T04:42:42.600Z,6.20
2023-01-31T04:45:45.609Z,6.13
2023-01-31T04:48:48.681Z,6.00
2023-01-31T04:51:51.872Z,5.90
2023-01-31T04:54:56.173Z,6.37
2023-01-31T04:57:59.299Z,6.90
2023-01-31T05:01:02.406Z,6.30
2023-01-31T05:04:05.899Z,5.63
2023-01-31T05:07:09.055Z,5.33
2023-01-31T05:10:14.322Z,6.53
2023-01-31T05:13:19.009Z,5.27
2023-01-31T05:16:22.077Z,6.60
2023-01-31T05:19:25.072Z,5.87
2023-01-31T05:22:28.302Z,5.40
2023-01-31T05:25:32.700Z,6.53
2023-01-31T05:28:36.227Z,5.60
2023-01-31T05:31:39.983Z,6.00
2023-01-31T05:34:46.024Z,6.07
2023-01-31T05:37:56.336Z,4.80
2023-01-31T05:41:17.121Z,5.43
2023-01-31T05:44:20.995Z,6.33
2023-01-31T05:47:24.849Z,6.63
2023-01-31T05:50:28.138Z,5.63
2023-01-31T05:53:31.327Z,6.07
2023-01-31T05:56:36.059Z,5.87
2023-01-31T05:59:41.102Z,5.43
2023-01-31T06:02:48.106Z,6.40
2023-01-31T06:05:51.193Z,5.33
2023-01-31T06:08:54.290Z,5.80
2023-01-31T06:11:58.735Z,6.03
2023-01-31T06:15:08.520Z,6.83
2023-01-31T06:18:11.680Z,5.73
2023-01-31T06:21:16.343Z,5.40
2023-01-31T06:24:21.541Z,6.57
2023-01-31T06:27:26.228Z,6.77
2023-01-31T06:30:29.759Z,7.03
2023-01-31T06:33:44.948Z,5.80
2023-01-31T06:36:50.264Z,6.13
2023-01-31T06:39:54.334Z,5.63
2023-01-31T06:42:59.273Z,6.13
2023-01-31T06:46:02.616Z,6.23
2023-01-31T06:49:06.326Z,5.37
2023-01-31T06:52:14.106Z,6.13
2023-01-31T06:55:18.369Z,7.03
2023-01-31T06:58:23.015Z,6.57
2023-01-31T07:01:26.723Z,7.17
2023-01-31T07:04:30.400Z,6.37
2023-01-31T07:07:33.436Z,6.07
2023-01-31T07:10:36.529Z,5.37
2023-01-31T07:13:41.199Z,6.43
2023-01-31T07:16:44.320Z,5.57
2023-01-31T07:19:47.247Z,6.10
2023-01-31T07:22:56.984Z,5.87
2023-01-31T07:26:02.130Z,5.67
2023-01-31T07:29:07.138Z,5.80
2023-01-31T07:32:11.350Z,5.77
2023-01-31T07:35:14.476Z,7.07
2023-01-31T07:38:17.539Z,5.90
2023-01-31T07:41:20.604Z,5.30
2023-01-31T07:44:25.424Z,6.10
2023-01-31T07:47:28.762Z,6.80
2023-01-31T07:50:34.055Z,6.47
2023-01-31T07:53:41.994Z,5.70
2023-01-31T07:56:45.199Z,6.80
2023-01-31T07:59:50.252Z,6.57
2023-01-31T08:03:13.435Z,5.83
2023-01-31T08:06:16.625Z,6.10
2023-01-31T08:09:19.694Z,6.03
2023-01-31T08:12:22.825Z,5.83
2023-01-31T08:15:29.443Z,6.80
2023-01-31T08:19:05.873Z,7.67
2023-01-31T08:22:13.859Z,5.70
2023-01-31T08:25:20.741Z,6.40
2023-01-31T08:28:23.933Z,5.53
2023-01-31T08:31:29.706Z,5.73
2023-01-31T08:34:32.942Z,5.67
2023-01-31T08:37:35.903Z,6.33
2023-01-31T08:40:38.870Z,5.87
2023-01-31T08:43:54.907Z,6.13
2023-01-31T08:47:02.699Z,6.57
2023-01-31T08:50:13.176Z,6.40
2023-01-31T08:53:25.211Z,5.47
2023-01-31T08:56:31.337Z,5.80
2023-01-31T08:59:34.562Z,6.83
2023-01-31T09:02:46.312Z,6.00
2023-01-31T09:05:49.974Z,5.33
2023-01-31T09:08:53.247Z,6.57
2023-01-31T09:11:56.444Z,7.67
2023-01-31T09:15:04.043Z,6.60
2023-01-31T09:18:09.166Z,5.77
2023-01-31T09:21:18.107Z,6.87
2023-01-31T09:24:21.140Z,6.60
2023-01-31T09:27:24.746Z,5.70
2023-01-31T09:30:31.226Z,5.53
2023-01-31T09:33:37.149Z,6.33
2023-01-31T09:36:40.372Z,6.57
2023-01-31T09:39:43.462Z,7.23
2023-01-31T09:42:49.318Z,7.33
2023-01-31T09:45:54.957Z,5.63
2023-01-31T09:49:05.956Z,6.10
2023-01-31T09:52:16.431Z,6.23
2023-01-31T09:55:26.103Z,7.17
2023-01-31T09:58:38.526Z,5.93
2023-01-31T10:01:50.512Z,5.67
2023-01-31T10:05:26.133Z,5.57
2023-01-31T10:08:46.671Z,6.03
2023-01-31T10:11:56.143Z,5.57
2023-01-31T10:15:20.624Z,7.03
2023-01-31T10:18:35.129Z,5.70
2023-01-31T10:21:45.095Z,7.53
2023-01-31T10:24:54.755Z,6.53
2023-01-31T10:28:03.650Z,7.60
2023-01-31T10:31:15.932Z,6.77
2023-01-31T10:34:25.133Z,7.30
2023-01-31T10:37:36.055Z,5.90
2023-01-31T10:40:43.787Z,6.53
2023-01-31T10:43:55.294Z,5.97
2023-01-31T10:47:00.732Z,8.47
2023-01-31T10:50:15.993Z,7.10
2023-01-31T10:53:40.232Z,6.00
2023-01-31T10:56:45.655Z,6.13
2023-01-31T10:59:55.621Z,8.43
2023-01-31T11:03:00.273Z,6.17
2023-01-31T11:06:04.001Z,6.70
2023-01-31T11:09:14.339Z,6.80
2023-01-31T11:12:19.921Z,6.20
2023-01-31T11:15:28.451Z,6.87
2023-01-31T11:18:38.808Z,6.07
2023-01-31T11:21:42.156Z,7.30
2023-01-31T11:24:50.373Z,5.77
2023-01-31T11:28:02.383Z,8.10
2023-01-31T11:31:09.764Z,7.73
2023-01-31T11:34:22.813Z,8.03
2023-01-31T11:37:26.359Z,8.57
2023-01-31T11:40:33.585Z,7.70
2023-01-31T11:43:36.700Z,7.67
2023-01-31T11:46:48.036Z,7.93
2023-01-31T11:49:51.450Z,7.63
2023-01-31T11:53:00.238Z,8.63
2023-01-31T11:56:15.525Z,9.10
2023-01-31T11:59:22.941Z,6.70
2023-01-31T12:02:34.464Z,7.83
2023-01-31T12:05:47.705Z,7.37
2023-01-31T12:10:38.637Z,7.23
2023-01-31T12:13:30.400Z,6.67
2023-01-31T12:16:35.306Z,7.07
2023-01-31T12:19:58.455Z,7.83
2023-01-31T12:23:17.122Z,7.77
2023-01-31T12:26:29.329Z,7.53
2023-01-31T12:30:05.047Z,8.27
2023-01-31T12:33:37.007Z,7.80
2023-01-31T12:36:57.284Z,7.57
2023-01-31T12:40:24.759Z,7.63
2023-01-31T12:43:52.706Z,7.30
2023-01-31T12:47:19.869Z,7.73
2023-01-31T12:50:31.297Z,7.77
2023-01-31T12:53:58.382Z,8.43
2023-01-31T12:57:25.970Z,8.90
2023-01-31T13:00:40.389Z,7.70
2023-01-31T13:04:04.816Z,7.80
2023-01-31T13:07:15.479Z,8.80
2023-01-31T13:10:38.251Z,8.40
2023-01-31T13:13:52.920Z,9.03
2023-01-31T13:17:07.274Z,9.27
2023-01-31T13:20:29.797Z,10.37
2023-01-31T13:23:42.030Z,8.90
2023-01-31T13:26:49.677Z,10.13
2023-01-31T13:29:59.108Z,11.03
2023-01-31T13:33:17.329Z,9.60
2023-01-31T13:36:27.100Z,10.07
2023-01-31T13:39:38.441Z,9.20
2023-01-31T13:42:41.776Z,9.37
2023-01-31T13:45:52.721Z,10.13
2023-01-31T13:49:01.040Z,8.67
2023-01-31T13:52:13.742Z,8.40
2023-01-31T13:55:21.930Z,8.07
2023-01-31T13:58:29.735Z,9.47
2023-01-31T14:01:44.525Z,8.70
2023-01-31T14:04:52.510Z,8.00
2023-01-31T14:08:33.724Z,9.13
2023-01-31T14:11:47.158Z,8.83
2023-01-31T14:14:52.316Z,7.63
2023-01-31T14:18:09.523Z,8.20
2023-01-31T14:21:55.157Z,7.47
2023-01-31T14:25:02.143Z,7.73
2023-01-31T14:28:07.647Z,7.77
2023-01-31T14:31:14.719Z,7.90
2023-01-31T14:34:25.974Z,8.17
2023-01-31T14:37:42.743Z,7.33
2023-01-31T14:40:58.772Z,7.17
2023-01-31T14:44:17.483Z,6.40
2023-01-31T14:53:09.746Z,8.23
2023-01-31T14:56:43.107Z,7.80
2023-01-31T14:59:55.607Z,8.23
2023-01-31T15:03:09.939Z,7.93
2023-01-31T15:06:23.686Z,7.97
2023-01-31T15:09:42.045Z,7.33
2023-01-31T15:13:00.699Z,8.27
2023-01-31T15:16:07.345Z,8.10
2023-01-31T15:19:16.377Z,9.53
2023-01-31T15:22:26.965Z,8.83
2023-01-31T15:25:44.152Z,9.43
2023-01-31T15:28:53.036Z,9.17
2023-01-31T15:32:03.861Z,10.33
2023-01-31T15:35:19.760Z,9.57
2023-01-31T15:38:31.269Z,9.73
2023-01-31T15:41:40.149Z,9.33
2023-01-31T15:44:48.944Z,9.43
2023-01-31T15:48:00.086Z,9.60
2023-01-31T15:51:03.417Z,10.20
2023-01-31T15:54:16.863Z,10.17
2023-01-31T15:58:43.021Z,9.70
2023-01-31T16:01:49.981Z,9.70
2023-01-31T16:04:53.819Z,10.77
2023-01-31T16:07:59.125Z,10.60
2023-01-31T16:11:04.769Z,10.90
2023-01-31T16:14:14.660Z,10.90
2023-01-31T16:17:20.552Z,10.10
2023-01-31T16:20:46.064Z,11.10
2023-01-31T16:24:02.903Z,11.03
2023-01-31T16:27:16.587Z,11.37
2023-01-31T16:30:20.587Z,11.33
2023-01-31T16:33:27.881Z,11.53
2023-01-31T16:36:36.330Z,12.40
2023-01-31T16:39:44.090Z,12.17
2023-01-31T16:42:48.532Z,12.60
2023-01-31T16:45:54.122Z,11.93
2023-01-31T16:49:07.388Z,11.10
2023-01-31T16:52:18.185Z,12.53
2023-01-31T16:55:24.310Z,12.73
2023-01-31T16:58:47.929Z,12.87
2023-01-31T17:02:04.001Z,15.40
2023-01-31T17:05:20.187Z,13.57
2023-01-31T17:08:25.416Z,14.60
2023-01-31T17:11:41.629Z,13.63
2023-01-31T17:15:20.453Z,13.20
2023-01-31T17:18:26.472Z,14.67
2023-01-31T17:21:39.684Z,13.70
2023-01-31T17:24:43.307Z,13.90
2023-01-31T17:27:47.985Z,13.87
2023-01-31T17:30:51.097Z,13.73
2023-01-31T17:33:57.360Z,15.83
2023-01-31T17:37:01.891Z,14.90
2023-01-31T17:40:06.194Z,14.57
2023-01-31T17:43:25.162Z,15.13
2023-01-31T17:46:28.379Z,12.63
2023-01-31T17:49:34.963Z,13.07
2023-01-31T17:52:40.672Z,13.30
2023-01-31T17:55:45.214Z,15.20
2023-01-31T17:58:51.935Z,14.60
2023-01-31T18:01:56.011Z,15.10
2023-01-31T18:04:59.548Z,14.40
2023-01-31T18:08:05.204Z,13.43
2023-01-31T18:11:10.717Z,13.43
2023-01-31T18:14:17.066Z,12.30
2023-01-31T18:17:20.668Z,13.20
2023-01-31T18:20:24.084Z,11.63
2023-01-31T18:23:28.737Z,12.30
2023-01-31T18:26:31.819Z,11.57
2023-01-31T18:29:34.949Z,11.10
2023-01-31T18:32:38.552Z,12.60
2023-01-31T18:35:44.607Z,10.90
2023-01-31T18:38:51.717Z,11.77
2023-01-31T18:41:55.022Z,10.63
2023-01-31T18:44:58.231Z,10.77
2023-01-31T18:48:01.336Z,10.40
2023-01-31T18:51:07.898Z,10.20
2023-01-31T18:54:17.017Z,9.53
2023-01-31T18:57:20.563Z,11.77
2023-01-31T19:00:29.597Z,9.30
2023-01-31T19:03:32.843Z,8.53
2023-01-31T19:06:40.963Z,9.73
2023-01-31T19:09:45.273Z,10.00
2023-01-31T19:12:50.664Z,11.47
2023-01-31T19:16:00.743Z,8.60
2023-01-31T19:19:04.484Z,8.57
2023-01-31T19:22:09.983Z,7.70
2023-01-31T19:25:18.323Z,8.37
2023-01-31T19:28:23.071Z,9.13
2023-01-31T19:31:31.110Z,6.30
2023-01-31T19:34:36.350Z,5.07
2023-01-31T19:37:39.413Z,5.37
2023-01-31T19:40:44.049Z,5.37
2023-01-31T19:43:49.622Z,4.77
2023-01-31T19:46:53.850Z,4.53
2023-01-31T19:49:56.863Z,5.27
2023-01-31T19:52:59.923Z,5.13
2023-01-31T19:56:05.301Z,4.33
2023-01-31T19:59:08.395Z,5.07
2023-01-31T20:02:19.701Z,4.40
2023-01-31T20:05:46.037Z,4.37
2023-01-31T20:08:54.216Z,4.13
2023-01-31T20:11:58.854Z,3.77
2023-01-31T20:15:02.357Z,4.53
2023-01-31T20:18:06.661Z,5.43
2023-01-31T20:21:14.789Z,4.27
2023-01-31T20:24:18.352Z,5.00
2023-01-31T20:27:22.813Z,5.03
2023-01-31T20:30:28.506Z,4.97
2023-01-31T20:33:32.395Z,5.40
2023-01-31T20:36:38.668Z,4.97
2023-01-31T20:39:41.828Z,4.87
2023-01-31T20:42:48.817Z,4.97
2023-01-31T20:46:04.739Z,5.70
2023-01-31T20:49:16.211Z,5.20
2023-01-31T20:52:22.609Z,5.77
2023-01-31T20:55:27.412Z,5.60
2023-01-31T20:58:36.017Z,5.97
2023-01-31T21:01:40.743Z,6.50
2023-01-31T21:04:44.113Z,6.37
2023-01-31T21:07:47.512Z,7.50
2023-01-31T21:10:51.692Z,9.13
2023-01-31T21:13:58.777Z,5.17
2023-01-31T21:17:02.015Z,6.77
2023-01-31T21:20:07.683Z,5.90
2023-01-31T21:23:11.534Z,5.87
2023-01-31T21:26:15.019Z,6.23
2023-01-31T21:29:19.830Z,6.43
2023-01-31T21:32:25.987Z,7.60
2023-01-31T21:35:33.322Z,7.07
2023-01-31T21:38:41.613Z,6.03
2023-01-31T21:42:03.294Z,6.90
2023-01-31T21:45:15.323Z,7.30
2023-01-31T21:48:31.274Z,6.00
2023-01-31T21:51:38.711Z,5.73
2023-01-31T21:54:41.927Z,5.03
2023-01-31T21:57:52.741Z,4.13
2023-01-31T22:01:07.461Z,4.30
2023-01-31T22:04:14.650Z,3.83
2023-01-31T22:07:17.856Z,3.70
2023-01-31T22:10:37.873Z,3.20
2023-01-31T22:13:44.634Z,3.60
2023-01-31T22:16:53.218Z,4.33
2023-01-31T22:19:56.400Z,4.13
2023-01-31T22:23:02.574Z,4.30
2023-01-31T22:26:07.593Z,4.43
2023-01-31T22:29:14.601Z,4.50
2023-01-31T22:32:19.592Z,5.43
2023-01-31T22:35:22.966Z,6.33
2023-01-31T22:38:26.669Z,4.80
2023-01-31T22:41:29.889Z,5.10
2023-01-31T22:44:33.217Z,6.03
2023-01-31T22:47:37.837Z,5.93
2023-01-31T22:50:41.825Z,7.23
2023-01-31T22:53:45.259Z,6.40
2023-01-31T22:56:49.656Z,5.00
2023-01-31T22:59:52.763Z,5.43
2023-01-31T23:03:00.851Z,6.20
2023-01-31T23:06:04.720Z,6.33
2023-01-31T23:09:10.722Z,6.97
2023-01-31T23:12:16.582Z,7.90
2023-01-31T23:15:25.179Z,7.30
2023-01-31T23:18:36.796Z,6.93
2023-01-31T23:21:45.368Z,6.53
2023-01-31T23:24:48.499Z,7.97
2023-01-31T23:27:51.836Z,8.00
2023-01-31T23:30:55.098Z,8.93
2023-01-31T23:34:00.809Z,7.87
2023-01-31T23:37:06.582Z,7.80
2023-01-31T23:40:12.021Z,7.17
2023-01-31T23:43:15.088Z,7.00
2023-01-31T23:46:18.562Z,6.90
2023-01-31T23:49:22.949Z,7.53
2023-01-31T23:52:26.184Z,7.07
2023-01-31T23:55:29.426Z,8.17
2023-01-31T23:58:33.893Z,6.83
